Time;durP1;ratioP1;P1;durP2;ratioP2;P2;SDS_P1;SDS_P2;PMS_P1;PMS_P2;Temp;Humidity;BMP_temperature;BMP_pressure;BME280_temperature;BME280_humidity;BME280_pressure;Samples;Min_cycle;Max_cycle;Signal;HPM_P1;HPM_P2
2023/04/01 00:00:37;;;;;;;1.30;0.65;;;9.10;99.90;;;;;;6002089;23;20279;-69
2023/04/01 00:03:04;;;;;;;1.10;0.90;;;9.10;99.90;;;;;;6001735;23;20277;-69
2023/04/01 00:05:31;;;;;;;1.35;0.85;;;9.10;99.90;;;;;;6003724;23;20201;-70
2023/04/01 00:07:58;;;;;;;2.38;0.80;;;9.10;99.90;;;;;;6002411;23;20201;-69
2023/04/01 00:10:25;;;;;;;0.90;0.70;;;9.10;99.90;;;;;;6001706;23;20262;-69
2023/04/01 00:12:53;;;;;;;1.80;0.80;;;9.10;99.90;;;;;;5991719;23;20545;-69
2023/04/01 00:15:21;;;;;;;1.33;0.63;;;9.10;99.90;;;;;;5991705;23;20209;-69
2023/04/01 00:17:49;;;;;;;2.50;1.00;;;9.20;99.90;;;;;;5995695;23;20225;-70
2023/04/01 00:20:16;;;;;;;2.50;1.10;;;9.20;99.90;;;;;;6001668;23;20221;-69
2023/04/01 00:22:43;;;;;;;0.70;0.60;;;9.20;99.90;;;;;;6002264;23;20200;-69
2023/04/01 00:25:11;;;;;;;4.50;0.80;;;9.20;99.90;;;;;;5999858;23;20198;-69
2023/04/01 00:27:38;;;;;;;1.70;0.70;;;9.20;99.90;;;;;;6002996;23;20237;-69
2023/04/01 00:30:07;;;;;;;1.58;0.80;;;9.20;99.90;;;;;;6004462;23;20357;-69
2023/04/01 00:32:35;;;;;;;1.10;0.80;;;9.20;99.90;;;;;;6001460;23;20267;-69
2023/04/01 00:35:03;;;;;;;2.58;0.93;;;9.20;99.90;;;;;;5996795;23;20542;-69
2023/04/01 00:37:30;;;;;;;1.98;1.02;;;9.10;99.90;;;;;;6002749;23;20269;-69
2023/04/01 00:39:57;;;;;;;1.10;0.70;;;9.10;99.90;;;;;;6000349;23;20224;-69
2023/04/01 00:42:26;;;;;;;1.13;0.80;;;9.10;99.90;;;;;;6004259;23;20189;-69
2023/04/01 00:44:55;;;;;;;1.92;0.70;;;9.10;99.90;;;;;;5997543;23;20197;-69
2023/04/01 00:47:23;;;;;;;1.63;1.10;;;9.20;99.90;;;;;;6003949;23;20195;-69
2023/04/01 00:49:54;;;;;;;2.15;0.70;;;9.20;99.90;;;;;;5999981;23;20284;-69
2023/04/01 00:52:23;;;;;;;2.15;0.80;;;9.30;99.90;;;;;;6002129;23;20202;-69
2023/04/01 00:54:55;;;;;;;2.92;0.80;;;9.30;99.90;;;;;;5993044;23;20297;-69
2023/04/01 00:57:28;;;;;;;2.20;0.80;;;9.30;99.90;;;;;;6002657;23;20182;-69
2023/04/01 00:59:56;;;;;;;3.78;1.30;;;9.30;99.90;;;;;;6003112;23;20602;-70
2023/04/01 01:02:23;;;;;;;3.20;0.90;;;9.60;99.90;;;;;;6004928;23;20190;-69
2023/04/01 01:04:52;;;;;;;1.50;0.80;;;9.30;99.90;;;;;;5997810;23;20186;-69
2023/04/01 01:07:30;;;;;;;2.50;0.70;;;9.40;99.90;;;;;;6004235;23;20338;-69
2023/04/01 01:10:04;;;;;;;2.63;0.80;;;9.40;99.90;;;;;;6004284;23;20272;-69
2023/04/01 01:12:40;;;;;;;1.80;0.88;;;9.40;99.90;;;;;;6002048;23;20215;-69
2023/04/01 01:15:17;;;;;;;2.17;0.85;;;9.40;99.90;;;;;;6002409;23;20202;-69
2023/04/01 01:17:52;;;;;;;2.17;1.00;;;9.40;99.90;;;;;;6004223;23;20503;-69
2023/04/01 01:20:37;;;;;;;1.65;0.70;;;9.40;99.90;;;;;;5996702;23;20219;-69
2023/04/01 01:23:35;;;;;;;1.88;1.10;;;9.40;99.90;;;;;;6000135;23;20229;-69
2023/04/01 01:26:20;;;;;;;3.80;1.00;;;9.40;99.90;;;;;;5992901;23;20210;-69
2023/04/01 01:29:02;;;;;;;2.75;0.80;;;9.40;99.90;;;;;;6004096;23;20224;-69
2023/04/01 01:31:38;;;;;;;0.95;0.70;;;9.30;99.90;;;;;;6000877;23;20216;-69
2023/04/01 01:34:15;;;;;;;2.05;0.70;;;9.40;99.90;;;;;;6002048;23;20228;-69
2023/04/01 01:36:49;;;;;;;2.17;0.80;;;9.40;99.90;;;;;;6004623;23;20193;-69
2023/04/01 01:39:18;;;;;;;1.50;0.90;;;9.40;99.90;;;;;;5998605;23;20211;-69
2023/04/01 01:41:49;;;;;;;1.30;0.70;;;9.40;99.90;;;;;;6004124;23;20565;-69
2023/04/01 01:44:17;;;;;;;2.40;0.80;;;9.40;99.90;;;;;;6002258;23;20642;-70
2023/04/01 01:46:45;;;;;;;2.28;0.82;;;9.40;99.90;;;;;;6003656;23;20671;-69
2023/04/01 01:49:15;;;;;;;2.80;0.73;;;9.40;99.90;;;;;;6001677;23;20233;-69
2023/04/01 01:51:43;;;;;;;2.92;0.95;;;9.40;99.90;;;;;;6005031;23;20300;-69
2023/04/01 01:54:13;;;;;;;2.97;0.90;;;9.40;99.90;;;;;;5996919;23;20194;-69
2023/04/01 01:56:44;;;;;;;1.88;0.80;;;9.40;99.90;;;;;;6004137;23;20193;-69
2023/04/01 01:59:13;;;;;;;1.42;0.90;;;9.40;99.90;;;;;;6000868;23;20251;-69
2023/04/01 02:01:45;;;;;;;2.70;0.95;;;9.40;99.90;;;;;;6002994;23;20245;-69
2023/04/01 02:04:15;;;;;;;2.05;0.98;;;9.40;99.90;;;;;;5991923;23;20218;-69
2023/04/01 02:06:48;;;;;;;2.47;0.93;;;9.60;99.90;;;;;;6004142;23;20649;-69
2023/04/01 02:09:16;;;;;;;0.98;0.60;;;9.30;99.90;;;;;;5998770;23;20278;-69
2023/04/01 02:11:48;;;;;;;1.92;0.98;;;9.30;99.90;;;;;;6001496;23;20217;-69
2023/04/01 02:14:18;;;;;;;1.85;0.88;;;9.30;99.90;;;;;;5994920;23;20281;-69
2023/04/01 02:16:52;;;;;;;1.20;0.80;;;9.30;99.90;;;;;;6003095;23;20224;-69
2023/04/01 02:19:22;;;;;;;2.22;0.70;;;9.20;99.90;;;;;;5994956;23;20295;-68
2023/04/01 02:21:53;;;;;;;1.50;0.82;;;9.20;99.90;;;;;;6003168;23;20221;-69
2023/04/01 02:24:23;;;;;;;1.83;0.70;;;9.20;99.90;;;;;;5997559;23;20191;-70
2023/04/01 02:26:52;;;;;;;1.15;0.77;;;9.10;99.90;;;;;;6001536;23;20193;-68
2023/04/01 02:29:22;;;;;;;1.30;0.70;;;9.10;99.90;;;;;;6002570;23;20189;-69
2023/04/01 02:31:51;;;;;;;1.80;0.90;;;9.10;99.90;;;;;;6002514;23;20284;-69
2023/04/01 02:34:18;;;;;;;2.58;0.90;;;9.10;99.90;;;;;;6002780;23;20284;-69
2023/04/01 02:36:45;;;;;;;1.45;0.60;;;9.10;99.90;;;;;;6003722;23;20325;-69
2023/04/01 02:39:14;;;;;;;2.25;0.70;;;9.10;99.90;;;;;;5997989;23;20200;-69
2023/04/01 02:41:42;;;;;;;1.52;0.68;;;9.10;99.90;;;;;;6001446;23;20248;-69
2023/04/01 02:44:10;;;;;;;1.95;0.70;;;9.10;99.90;;;;;;6003440;23;20201;-69
2023/04/01 02:46:37;;;;;;;1.63;0.68;;;9.10;99.90;;;;;;6000519;23;20736;-69
2023/04/01 02:49:04;;;;;;;2.08;0.82;;;9.00;99.90;;;;;;6001296;23;20273;-69
2023/04/01 02:51:31;;;;;;;1.30;0.60;;;9.00;99.90;;;;;;6002572;23;20247;-69
2023/04/01 02:53:59;;;;;;;0.73;0.60;;;9.00;99.90;;;;;;5999204;23;20205;-69
2023/04/01 02:56:27;;;;;;;1.63;0.70;;;9.00;99.90;;;;;;5999241;23;20491;-68
2023/04/01 02:58:55;;;;;;;1.98;0.73;;;8.90;99.90;;;;;;5996049;23;20649;-69
2023/04/01 03:01:23;;;;;;;2.17;0.60;;;8.90;99.90;;;;;;6001372;23;20308;-69
2023/04/01 03:03:50;;;;;;;0.60;0.50;;;8.90;99.90;;;;;;5999366;23;20661;-69
2023/04/01 03:06:18;;;;;;;0.90;0.60;;;8.80;99.90;;;;;;5995467;23;20226;-69
2023/04/01 03:08:45;;;;;;;1.00;0.80;;;8.80;99.90;;;;;;5999037;23;20291;-69
2023/04/01 03:11:12;;;;;;;1.00;0.70;;;8.80;99.90;;;;;;6004620;23;20703;-69
2023/04/01 03:13:41;;;;;;;1.15;0.68;;;8.80;99.90;;;;;;6004495;23;20278;-69
2023/04/01 03:16:08;;;;;;;1.33;0.73;;;8.80;99.90;;;;;;5995075;23;20201;-69
2023/04/01 03:18:35;;;;;;;1.58;0.70;;;8.80;99.90;;;;;;6000761;23;20199;-68
2023/04/01 03:21:15;;;;;;;1.35;0.80;;;8.80;99.90;;;;;;6002605;23;20304;-70
2023/04/01 03:23:42;;;;;;;1.02;0.60;;;8.80;99.90;;;;;;6003429;23;20194;-69
2023/04/01 03:26:09;;;;;;;1.48;0.60;;;8.80;99.90;;;;;;6005223;23;20290;-69
2023/04/01 03:28:36;;;;;;;1.10;0.50;;;8.80;99.90;;;;;;6000400;23;20192;-69
2023/04/01 03:31:05;;;;;;;0.95;0.50;;;8.80;99.90;;;;;;6000638;23;20558;-69
2023/04/01 03:33:33;;;;;;;1.55;0.50;;;8.80;99.90;;;;;;5999283;23;20712;-69
2023/04/01 03:36:00;;;;;;;1.50;0.63;;;8.80;99.90;;;;;;6003759;23;20193;-69
2023/04/01 03:38:27;;;;;;;2.30;0.77;;;8.70;99.90;;;;;;6000768;23;20243;-69
2023/04/01 03:40:54;;;;;;;1.25;0.70;;;8.70;99.90;;;;;;6004930;23;20227;-69
2023/04/01 03:43:22;;;;;;;1.27;0.57;;;8.70;99.90;;;;;;6002516;23;20295;-69
2023/04/01 03:45:51;;;;;;;1.70;0.55;;;8.70;99.90;;;;;;6001804;23;20288;-69
2023/04/01 03:48:19;;;;;;;0.60;0.47;;;8.70;99.90;;;;;;5992851;23;20267;-70
2023/04/01 03:50:47;;;;;;;0.70;0.60;;;8.70;99.90;;;;;;5999299;23;20270;-69
2023/04/01 03:53:15;;;;;;;2.13;0.60;;;8.70;99.90;;;;;;6002409;23;20695;-70
2023/04/01 03:55:42;;;;;;;2.58;0.80;;;8.70;99.90;;;;;;6003935;23;20232;-69
2023/04/01 03:58:09;;;;;;;1.23;0.60;;;8.60;99.90;;;;;;5989564;23;20626;-69
2023/04/01 04:00:37;;;;;;;1.73;0.70;;;8.60;99.90;;;;;;5998655;23;20309;-69
2023/04/01 04:03:04;;;;;;;0.60;0.50;;;8.60;99.90;;;;;;5999372;23;20194;-69
2023/04/01 04:05:32;;;;;;;3.00;0.70;;;8.60;99.90;;;;;;6002439;23;20192;-69
2023/04/01 04:08:00;;;;;;;1.40;0.77;;;8.60;99.90;;;;;;6000617;23;20205;-69
2023/04/01 04:10:28;;;;;;;1.55;0.60;;;8.60;99.90;;;;;;6002674;23;20295;-69
2023/04/01 04:12:56;;;;;;;1.58;0.80;;;8.60;99.90;;;;;;6003712;23;20201;-69
2023/04/01 04:15:24;;;;;;;2.92;0.77;;;8.50;99.90;;;;;;5993679;23;20272;-69
2023/04/01 04:17:50;;;;;;;0.80;0.60;;;8.50;99.90;;;;;;6001904;23;20193;-69
2023/04/01 04:20:18;;;;;;;0.90;0.63;;;8.50;99.90;;;;;;5998274;23;20234;-68
2023/04/01 04:22:46;;;;;;;1.98;1.02;;;8.60;99.90;;;;;;6002086;23;20196;-69
2023/04/01 04:25:13;;;;;;;1.15;0.65;;;8.60;99.90;;;;;;5993618;23;20284;-69
2023/04/01 04:27:40;;;;;;;1.13;0.50;;;8.60;99.90;;;;;;5992346;23;20647;-68
2023/04/01 04:30:09;;;;;;;2.15;0.70;;;8.60;99.90;;;;;;5998497;23;20768;-69
2023/04/01 04:32:37;;;;;;;1.00;0.50;;;8.60;99.90;;;;;;5997993;23;20628;-69
2023/04/01 04:35:06;;;;;;;1.55;0.70;;;8.60;99.90;;;;;;6001869;23;20648;-69
2023/04/01 04:37:33;;;;;;;0.95;0.60;;;8.70;99.90;;;;;;5995404;23;20277;-68
2023/04/01 04:40:01;;;;;;;0.82;0.50;;;8.60;99.90;;;;;;6003501;23;20250;-69
2023/04/01 04:42:28;;;;;;;1.10;0.50;;;8.70;99.90;;;;;;5993826;23;20196;-69
2023/04/01 04:44:56;;;;;;;1.23;0.68;;;8.70;99.90;;;;;;5995987;23;20216;-69
2023/04/01 04:47:22;;;;;;;1.83;0.63;;;8.60;99.90;;;;;;5994278;23;20200;-69
2023/04/01 04:49:49;;;;;;;3.13;0.80;;;8.70;99.90;;;;;;5998264;23;20217;-69
2023/04/01 04:52:17;;;;;;;1.38;0.70;;;8.70;99.90;;;;;;6001074;23;20283;-68
2023/04/01 04:54:43;;;;;;;1.63;0.70;;;8.70;99.90;;;;;;6002459;23;20713;-69
2023/04/01 04:57:12;;;;;;;2.35;0.70;;;8.70;99.90;;;;;;6002601;23;20193;-70
2023/04/01 04:59:39;;;;;;;1.52;0.80;;;8.60;99.90;;;;;;6004362;23;20222;-69
2023/04/01 05:02:06;;;;;;;2.15;0.73;;;8.60;99.90;;;;;;5999496;23;20597;-69
2023/04/01 05:04:36;;;;;;;1.65;0.80;;;8.60;99.90;;;;;;5994742;23;20202;-69
2023/04/01 05:07:03;;;;;;;3.28;0.70;;;8.60;99.90;;;;;;5996640;23;20234;-69
2023/04/01 05:09:31;;;;;;;1.55;0.70;;;8.50;99.90;;;;;;5992786;23;20192;-69
2023/04/01 05:11:57;;;;;;;1.02;0.50;;;8.50;99.90;;;;;;5993491;23;20192;-69
2023/04/01 05:14:26;;;;;;;1.70;0.70;;;8.60;99.90;;;;;;6002888;23;20361;-69
2023/04/01 05:16:54;;;;;;;1.52;0.60;;;8.60;99.90;;;;;;5999902;23;20198;-69
2023/04/01 05:19:21;;;;;;;1.95;0.68;;;8.60;99.90;;;;;;5996559;23;20247;-69
2023/04/01 05:21:48;;;;;;;1.55;0.60;;;8.60;99.90;;;;;;6001558;23;20249;-69
2023/04/01 05:24:15;;;;;;;2.08;0.68;;;8.60;99.90;;;;;;6002076;23;20200;-69
2023/04/01 05:26:42;;;;;;;2.00;0.85;;;8.50;99.90;;;;;;6002783;23;20203;-69
2023/04/01 05:29:09;;;;;;;1.10;0.68;;;8.60;99.90;;;;;;5995633;23;20222;-70
2023/04/01 05:31:37;;;;;;;2.40;0.80;;;8.50;99.90;;;;;;6003803;23;20200;-69
2023/04/01 05:34:04;;;;;;;2.15;0.63;;;8.60;99.90;;;;;;6000484;23;20203;-69
2023/04/01 05:36:32;;;;;;;1.65;0.80;;;8.60;99.90;;;;;;5998834;23;20204;-69
2023/04/01 05:38:59;;;;;;;0.88;0.65;;;8.60;99.90;;;;;;6001396;23;20612;-70
2023/04/01 05:41:26;;;;;;;2.88;0.80;;;8.60;99.90;;;;;;6003057;23;20231;-69
2023/04/01 05:43:53;;;;;;;2.40;0.80;;;8.70;99.90;;;;;;5996200;23;20703;-69
2023/04/01 05:46:20;;;;;;;1.80;0.70;;;8.60;99.90;;;;;;6002282;23;20252;-68
2023/04/01 05:48:48;;;;;;;1.40;0.88;;;8.70;99.90;;;;;;6004338;23;20642;-69
2023/04/01 05:51:16;;;;;;;3.55;0.93;;;8.70;99.90;;;;;;6003344;23;20242;-70
2023/04/01 05:53:44;;;;;;;1.75;0.98;;;8.70;99.90;;;;;;5994535;23;20196;-69
2023/04/01 05:56:10;;;;;;;1.30;0.70;;;8.70;99.90;;;;;;5991450;23;20282;-70
2023/04/01 05:58:38;;;;;;;2.95;0.85;;;8.80;99.90;;;;;;6000007;23;20282;-70
2023/04/01 06:01:07;;;;;;;1.10;0.70;;;8.90;99.90;;;;;;5993868;23;20221;-69
2023/04/01 06:03:35;;;;;;;2.25;1.00;;;8.90;99.90;;;;;;5992871;23;20243;-69
2023/04/01 06:06:04;;;;;;;1.77;1.00;;;9.00;99.90;;;;;;5998315;23;20632;-69
2023/04/01 06:08:32;;;;;;;3.45;1.13;;;9.10;99.90;;;;;;5998000;23;20265;-70
2023/04/01 06:11:18;;;;;;;0.95;0.70;;;9.10;99.90;;;;;;5993927;23;20225;-69
2023/04/01 06:14:08;;;;;;;1.45;0.60;;;9.20;99.90;;;;;;5990641;23;20539;-69
2023/04/01 06:16:44;;;;;;;1.60;0.60;;;9.20;99.90;;;;;;5995394;23;20197;-69
2023/04/01 06:19:28;;;;;;;1.40;0.90;;;9.30;99.90;;;;;;5993125;23;20189;-69
2023/04/01 06:22:30;;;;;;;3.00;0.63;;;9.40;99.90;;;;;;5997652;23;20242;-69
2023/04/01 06:25:16;;;;;;;2.45;1.45;;;9.40;99.90;;;;;;5996809;23;20212;-69
2023/04/01 06:28:02;;;;;;;1.40;0.60;;;9.80;99.90;;;;;;6001308;23;20217;-69
2023/04/01 06:30:39;;;;;;;1.08;0.75;;;9.50;99.90;;;;;;5984619;23;20210;-70
2023/04/01 06:33:25;;;;;;;1.15;0.50;;;9.50;99.90;;;;;;5992233;23;20183;-69
2023/04/01 06:36:13;;;;;;;1.10;0.70;;;9.50;99.90;;;;;;5999075;23;20204;-69
2023/04/01 06:39:00;;;;;;;1.40;0.75;;;9.60;99.90;;;;;;5989065;23;20185;-70
2023/04/01 06:42:01;;;;;;;1.20;0.70;;;9.60;99.90;;;;;;5990576;23;20532;-70
2023/04/01 06:44:38;;;;;;;1.60;0.82;;;9.60;99.90;;;;;;5987450;23;20240;-70
2023/04/01 06:47:18;;;;;;;2.30;0.80;;;9.70;99.90;;;;;;5997780;23;20182;-70
2023/04/01 06:49:53;;;;;;;1.65;0.70;;;9.70;99.90;;;;;;6000680;23;20268;-70
2023/04/01 06:52:25;;;;;;;1.38;1.00;;;9.60;99.90;;;;;;5994531;23;20196;-70
2023/04/01 06:55:01;;;;;;;0.88;0.68;;;9.70;99.90;;;;;;5997733;23;20190;-70
2023/04/01 06:57:33;;;;;;;0.70;0.70;;;9.80;99.90;;;;;;6000456;23;20197;-69
2023/04/01 07:00:04;;;;;;;1.05;0.70;;;9.70;99.90;;;;;;5999027;23;20236;-69
2023/04/01 07:02:39;;;;;;;1.75;0.70;;;9.70;99.90;;;;;;5999778;23;20209;-69
2023/04/01 07:05:07;;;;;;;1.75;0.70;;;9.70;99.90;;;;;;5995067;23;20190;-70
2023/04/01 07:07:38;;;;;;;0.80;0.60;;;9.70;99.90;;;;;;6002734;23;20595;-70
2023/04/01 07:10:13;;;;;;;1.58;0.60;;;9.70;99.90;;;;;;6000801;23;20224;-70
2023/04/01 07:12:46;;;;;;;0.80;0.60;;;9.70;99.90;;;;;;6001016;23;20189;-70
2023/04/01 07:15:19;;;;;;;2.40;0.85;;;9.70;99.90;;;;;;5993273;23;20550;-72
2023/04/01 07:17:53;;;;;;;1.05;0.65;;;9.70;99.90;;;;;;5990211;23;20236;-71
2023/04/01 07:20:26;;;;;;;1.25;0.60;;;9.70;99.90;;;;;;5998998;23;20210;-70
2023/04/01 07:22:57;;;;;;;0.60;0.50;;;9.70;99.90;;;;;;5987318;23;20206;-72
2023/04/01 07:25:28;;;;;;;1.17;0.50;;;9.60;99.90;;;;;;5990911;23;20682;-71
2023/04/01 07:28:01;;;;;;;0.90;0.60;;;9.60;99.90;;;;;;5994789;23;20209;-68
2023/04/01 07:30:34;;;;;;;1.13;0.50;;;9.60;99.90;;;;;;5995329;23;20218;-68
2023/04/01 07:33:06;;;;;;;0.70;0.40;;;9.60;99.90;;;;;;5996760;23;20212;-70
2023/04/01 07:35:39;;;;;;;1.42;0.60;;;9.70;99.90;;;;;;5992205;23;20229;-70
2023/04/01 07:38:18;;;;;;;2.15;0.70;;;9.60;99.90;;;;;;5985718;23;20255;-71
2023/04/01 07:40:54;;;;;;;1.08;0.60;;;9.60;99.90;;;;;;5992218;23;20209;-68
2023/04/01 07:43:40;;;;;;;1.35;0.65;;;9.60;99.90;;;;;;5984417;23;20189;-68
2023/04/01 07:46:19;;;;;;;0.88;0.50;;;9.60;99.90;;;;;;5992645;23;20273;-69
2023/04/01 07:48:56;;;;;;;1.50;0.70;;;9.60;99.90;;;;;;5999917;23;20268;-69
2023/04/01 07:51:29;;;;;;;0.95;0.70;;;9.60;99.90;;;;;;6000073;23;20757;-69
2023/04/01 07:54:08;;;;;;;1.02;0.63;;;9.60;99.90;;;;;;5991330;23;20240;-68
2023/04/01 07:56:44;;;;;;;1.33;0.60;;;9.60;99.90;;;;;;5999220;23;20660;-68
2023/04/01 07:59:21;;;;;;;1.50;0.70;;;9.60;99.90;;;;;;6000012;23;20226;-69
2023/04/01 08:01:53;;;;;;;1.02;0.40;;;9.70;99.90;;;;;;5999846;23;20217;-69
2023/04/01 08:04:33;;;;;;;1.02;0.60;;;9.70;99.90;;;;;;6002414;23;20185;-69
2023/04/01 08:07:09;;;;;;;0.82;0.63;;;9.80;99.90;;;;;;5998784;23;20191;-68
2023/04/01 08:09:44;;;;;;;1.63;0.60;;;9.80;99.90;;;;;;5992721;23;20224;-68
2023/04/01 08:12:28;;;;;;;2.38;0.70;;;9.80;99.90;;;;;;6002890;23;20190;-68
2023/04/01 08:15:06;;;;;;;1.23;0.70;;;9.80;99.90;;;;;;5991744;23;20189;-69
2023/04/01 08:17:41;;;;;;;0.90;0.50;;;9.80;99.90;;;;;;5994805;23;20204;-89
2023/04/01 08:20:33;;;;;;;1.83;0.70;;;9.80;99.90;;;;;;5998013;23;20573;-69
2023/04/01 08:23:05;;;;;;;1.63;0.90;;;9.80;99.90;;;;;;5995438;23;20260;-69
2023/04/01 08:25:34;;;;;;;1.42;0.80;;;9.80;99.90;;;;;;5995142;23;20182;-68
2023/04/01 08:28:10;;;;;;;0.70;0.50;;;9.80;99.90;;;;;;5997441;23;20261;-68
2023/04/01 08:30:43;;;;;;;1.02;0.70;;;9.90;99.90;;;;;;6000353;23;20308;-69
2023/04/01 08:33:16;;;;;;;1.00;0.60;;;9.80;99.90;;;;;;5996896;23;20272;-69
2023/04/01 08:35:51;;;;;;;1.23;0.55;;;9.80;99.90;;;;;;6002734;23;20212;-69
2023/04/01 08:38:21;;;;;;;3.33;1.00;;;9.80;99.90;;;;;;6002935;23;20702;-69
2023/04/01 08:40:58;;;;;;;0.80;0.60;;;9.90;99.90;;;;;;6002803;23;20218;-81
2023/04/01 08:43:47;;;;;;;1.25;0.57;;;9.70;99.90;;;;;;6004131;23;20188;-69
2023/04/01 08:46:31;;;;;;;1.40;0.65;;;9.60;99.90;;;;;;5997311;23;20216;-70
2023/04/01 08:49:12;;;;;;;1.05;0.60;;;9.40;99.90;;;;;;5992244;23;20667;-69
2023/04/01 08:52:03;;;;;;;0.70;0.50;;;9.20;99.90;;;;;;5991405;23;20356;-68
2023/04/01 08:54:49;;;;;;;1.50;0.90;;;9.00;99.90;;;;;;5986214;23;20192;-69
2023/04/01 08:57:26;;;;;;;0.70;0.68;;;9.00;99.90;;;;;;5998459;23;20185;-68
2023/04/01 09:00:08;;;;;;;1.20;0.57;;;8.90;99.90;;;;;;5997626;23;20226;-69
2023/04/01 09:03:21;;;;;;;1.48;0.77;;;8.90;99.90;;;;;;5993609;23;20788;-72
2023/04/01 09:06:21;;;;;;;1.35;0.70;;;8.90;99.90;;;;;;5909690;24;20225;-68
2023/04/01 09:09:02;;;;;;;1.17;0.68;;;8.90;99.90;;;;;;5979003;23;20549;-68
2023/04/01 09:11:39;;;;;;;0.70;0.65;;;8.90;99.90;;;;;;6001213;23;20191;-68
2023/04/01 09:14:32;;;;;;;1.33;0.60;;;8.90;99.90;;;;;;5985714;23;20184;-68
2023/04/01 09:17:37;;;;;;;2.50;0.80;;;8.90;99.90;;;;;;5991790;23;20188;-69
2023/04/01 09:20:20;;;;;;;0.98;0.60;;;9.00;99.90;;;;;;5982001;23;20728;-69
2023/04/01 09:23:11;;;;;;;0.90;0.60;;;9.10;99.90;;;;;;6002685;23;20725;-69
2023/04/01 09:26:01;;;;;;;0.80;0.50;;;9.20;99.90;;;;;;5998182;23;20189;-68
2023/04/01 09:28:34;;;;;;;1.42;0.77;;;9.30;99.90;;;;;;5996410;23;20210;-69
2023/04/01 09:31:25;;;;;;;0.98;0.65;;;9.40;99.90;;;;;;5999213;23;20633;-69
2023/04/01 09:34:35;;;;;;;1.05;0.60;;;9.50;99.90;;;;;;5987673;23;20277;-68
2023/04/01 09:37:19;;;;;;;0.93;0.50;;;9.60;99.90;;;;;;5905484;24;20185;-68
2023/04/01 09:40:00;;;;;;;0.88;0.60;;;9.70;99.90;;;;;;5914418;24;20216;-68
2023/04/01 09:42:43;;;;;;;0.93;0.50;;;9.70;99.90;;;;;;5979434;23;20235;-69
2023/04/01 09:45:21;;;;;;;0.60;0.50;;;9.70;99.90;;;;;;5992170;23;20193;-69
2023/04/01 09:48:03;;;;;;;0.60;0.47;;;9.70;99.90;;;;;;5989396;23;20198;-69
2023/04/01 09:50:48;;;;;;;0.90;0.60;;;9.70;99.90;;;;;;6001767;23;20227;-69
2023/04/01 09:53:25;;;;;;;0.50;0.40;;;9.70;99.90;;;;;;5992701;23;20192;-68
2023/04/01 09:56:46;;;;;;;0.68;0.50;;;9.70;99.90;;;;;;5987936;23;20190;-69
2023/04/01 09:59:37;;;;;;;0.70;0.50;;;9.80;99.90;;;;;;5981215;23;20214;-68
2023/04/01 10:02:41;;;;;;;0.70;0.50;;;9.80;99.90;;;;;;5978343;23;20325;-69
2023/04/01 10:05:38;;;;;;;0.60;0.50;;;9.80;99.90;;;;;;5993129;23;20656;-69
2023/04/01 10:08:31;;;;;;;0.60;0.50;;;9.80;99.90;;;;;;6000119;23;20190;-68
2023/04/01 10:11:36;;;;;;;0.60;0.47;;;9.80;99.90;;;;;;6000550;23;20273;-80
2023/04/01 10:14:42;;;;;;;0.60;0.40;;;9.90;99.90;;;;;;5996905;23;20192;-69
2023/04/01 10:17:34;;;;;;;0.50;0.40;;;9.90;99.90;;;;;;5997138;23;20578;-68
2023/04/01 10:20:20;;;;;;;0.50;0.40;;;9.90;99.90;;;;;;5999963;23;20702;-68
2023/04/01 10:23:28;;;;;;;0.50;0.40;;;9.90;99.90;;;;;;5997865;23;20296;-69
2023/04/01 10:26:25;;;;;;;0.70;0.50;;;9.90;99.90;;;;;;5988318;23;20199;-69
2023/04/01 10:29:21;;;;;;;0.73;0.47;;;10.00;99.90;;;;;;5992798;23;20289;-69
2023/04/01 10:32:27;;;;;;;0.60;0.40;;;10.00;99.90;;;;;;5988106;23;20281;-69
2023/04/01 10:35:19;;;;;;;0.60;0.40;;;10.00;99.90;;;;;;5925804;23;20737;-69
2023/04/01 10:38:13;;;;;;;0.50;0.40;;;10.00;99.90;;;;;;5984419;23;20236;-69
2023/04/01 10:41:28;;;;;;;0.50;0.50;;;10.00;99.90;;;;;;5986528;23;20259;-69
2023/04/01 10:44:43;;;;;;;0.50;0.40;;;10.10;99.90;;;;;;5964696;23;20194;-69
2023/04/01 10:47:42;;;;;;;1.02;0.40;;;10.10;99.90;;;;;;5989045;23;20190;-69
2023/04/01 10:50:25;;;;;;;0.57;0.47;;;10.00;99.90;;;;;;5990396;23;20594;-69
2023/04/01 10:53:33;;;;;;;0.50;0.40;;;9.90;99.90;;;;;;5997096;23;20240;-69
2023/04/01 10:56:40;;;;;;;0.75;0.50;;;9.90;99.90;;;;;;5993935;23;20665;-69
2023/04/01 10:59:32;;;;;;;1.42;0.40;;;9.90;99.90;;;;;;5939840;23;20220;-80
2023/04/01 11:02:36;;;;;;;0.60;0.40;;;9.90;99.90;;;;;;5997602;23;20483;-80
2023/04/01 11:05:56;;;;;;;0.50;0.40;;;9.90;99.90;;;;;;5996829;23;20257;-68
2023/04/01 11:08:59;;;;;;;0.57;0.43;;;10.00;99.90;;;;;;5987077;23;20182;-68
2023/04/01 11:11:58;;;;;;;1.33;0.50;;;10.00;99.90;;;;;;5987661;23;20209;-68
2023/04/01 11:14:57;;;;;;;0.70;0.50;;;10.10;99.90;;;;;;5994867;23;20182;-69
2023/04/01 11:17:59;;;;;;;0.80;0.40;;;10.20;99.90;;;;;;6000381;23;20185;-68
2023/04/01 11:20:40;;;;;;;0.70;0.50;;;10.20;99.90;;;;;;5980027;23;20743;-68
2023/04/01 11:23:41;;;;;;;0.60;0.47;;;10.30;99.90;;;;;;6000026;23;20674;-68
2023/04/01 11:26:22;;;;;;;1.27;0.50;;;10.40;99.90;;;;;;6002498;23;20640;-68
2023/04/01 11:29:08;;;;;;;0.70;0.50;;;10.40;99.90;;;;;;6001965;23;20273;-69
2023/04/01 11:31:55;;;;;;;0.75;0.50;;;10.50;99.90;;;;;;5995767;23;20273;-69
2023/04/01 11:35:08;;;;;;;0.70;0.45;;;10.50;99.90;;;;;;6004257;23;20341;-69
2023/04/01 11:37:42;;;;;;;0.60;0.50;;;10.60;99.90;;;;;;5912645;24;20184;-68
2023/04/01 11:40:24;;;;;;;0.70;0.40;;;10.70;99.90;;;;;;5971024;23;20213;-69
2023/04/01 11:42:58;;;;;;;0.50;0.50;;;10.70;99.90;;;;;;5991489;23;20568;-69
2023/04/01 11:45:37;;;;;;;0.50;0.40;;;10.80;99.90;;;;;;5990749;23;20205;-69
2023/04/01 11:48:27;;;;;;;1.02;0.40;;;10.90;99.90;;;;;;5995352;23;20252;-69
2023/04/01 11:51:13;;;;;;;0.50;0.40;;;10.90;99.90;;;;;;5993635;23;20290;-69
2023/04/01 11:53:49;;;;;;;1.10;0.50;;;10.80;99.90;;;;;;5984246;23;20193;-69
2023/04/01 11:56:39;;;;;;;0.70;0.50;;;10.90;99.90;;;;;;5981104;23;20705;-69
2023/04/01 11:59:40;;;;;;;0.50;0.40;;;11.00;99.90;;;;;;5953885;23;20218;-69
2023/04/01 12:02:16;;;;;;;0.60;0.45;;;11.00;99.90;;;;;;5986212;23;20216;-69
2023/04/01 12:05:16;;;;;;;0.65;0.40;;;11.00;99.90;;;;;;5997856;23;20192;-69
2023/04/01 12:08:01;;;;;;;0.65;0.50;;;10.90;99.90;;;;;;5973827;23;20182;-69
2023/04/01 12:10:39;;;;;;;0.60;0.50;;;10.80;99.90;;;;;;6001089;23;20209;-70
2023/04/01 12:13:15;;;;;;;0.60;0.45;;;10.70;99.90;;;;;;5998109;23;20333;-69
2023/04/01 12:15:55;;;;;;;0.50;0.40;;;10.70;99.90;;;;;;6003104;23;20178;-70
2023/04/01 12:18:31;;;;;;;0.50;0.50;;;10.80;99.90;;;;;;5996739;23;20238;-69
2023/04/01 12:21:04;;;;;;;0.88;0.50;;;10.70;99.90;;;;;;6001661;23;20186;-69
2023/04/01 12:23:53;;;;;;;0.70;0.50;;;10.80;99.90;;;;;;6001464;23;20268;-69
2023/04/01 12:26:44;;;;;;;0.70;0.40;;;10.90;99.90;;;;;;5996260;23;20216;-69
2023/04/01 12:29:38;;;;;;;0.50;0.40;;;11.00;99.90;;;;;;6003591;23;20272;-69
2023/04/01 12:32:16;;;;;;;0.80;0.50;;;11.00;99.90;;;;;;5995316;23;20190;-69
2023/04/01 12:35:00;;;;;;;0.50;0.50;;;11.00;99.90;;;;;;6001597;23;20189;-70
2023/04/01 12:37:34;;;;;;;0.77;0.40;;;11.00;99.90;;;;;;6001900;23;20186;-69
2023/04/01 12:40:21;;;;;;;0.95;0.40;;;11.00;99.90;;;;;;6002270;23;20212;-70
2023/04/01 12:43:02;;;;;;;0.50;0.40;;;11.10;99.90;;;;;;5991826;23;20721;-70
2023/04/01 12:45:32;;;;;;;0.70;0.50;;;11.10;99.90;;;;;;6002495;23;20189;-70
2023/04/01 12:48:40;;;;;;;0.70;0.50;;;11.10;99.90;;;;;;5997682;23;20209;-71
2023/04/01 12:51:27;;;;;;;0.60;0.50;;;11.10;99.90;;;;;;6002279;23;20193;-70
2023/04/01 12:54:24;;;;;;;0.60;0.50;;;11.30;99.90;;;;;;5996659;23;20194;-69
2023/04/01 12:57:05;;;;;;;0.60;0.40;;;11.10;99.90;;;;;;5997664;23;20214;-91
2023/04/01 12:59:51;;;;;;;0.60;0.40;;;11.10;99.90;;;;;;5991016;23;20292;-71
2023/04/01 13:02:31;;;;;;;1.10;0.50;;;11.40;99.90;;;;;;6000554;23;20189;-70
2023/04/01 13:05:32;;;;;;;0.85;0.40;;;11.10;99.90;;;;;;5985983;23;20284;-70
2023/04/01 13:08:29;;;;;;;0.90;0.50;;;11.10;99.90;;;;;;5983894;23;20203;-70
2023/04/01 13:11:17;;;;;;;0.57;0.50;;;11.00;99.90;;;;;;5994137;23;20194;-70
2023/04/01 13:14:11;;;;;;;0.50;0.40;;;11.00;99.90;;;;;;5988976;23;20266;-70
2023/04/01 13:16:43;;;;;;;1.00;0.40;;;10.90;99.90;;;;;;5982016;23;20678;-70
2023/04/01 13:19:18;;;;;;;0.80;0.40;;;10.90;99.90;;;;;;5991379;23;20238;-70
2023/04/01 13:21:55;;;;;;;0.50;0.40;;;10.80;99.90;;;;;;5991418;23;20189;-70
2023/04/01 13:24:37;;;;;;;0.50;0.40;;;10.60;99.90;;;;;;5996241;23;20210;-82
2023/04/01 13:27:14;;;;;;;0.50;0.40;;;10.50;99.90;;;;;;5991996;23;20193;-70
2023/04/01 13:29:46;;;;;;;1.02;0.45;;;10.30;99.90;;;;;;6000708;23;20236;-69
2023/04/01 13:32:30;;;;;;;1.67;0.50;;;10.20;99.90;;;;;;5993796;23;20277;-70
2023/04/01 13:35:11;;;;;;;0.50;0.40;;;10.20;99.90;;;;;;5998550;23;20531;-70
2023/04/01 13:37:53;;;;;;;0.73;0.40;;;10.30;99.90;;;;;;5998921;23;20261;-69
2023/04/01 13:40:37;;;;;;;0.52;0.40;;;10.40;99.90;;;;;;5985754;23;20216;-69
2023/04/01 13:43:11;;;;;;;0.90;0.45;;;10.40;99.90;;;;;;5999773;23;20204;-73
2023/04/01 13:46:03;;;;;;;1.45;0.40;;;10.50;99.90;;;;;;5993629;23;20224;-70
2023/04/01 13:48:54;;;;;;;0.93;0.40;;;10.50;99.90;;;;;;5983008;23;20209;-69